createdAt,value
2019-03-22T00:00:43.557Z,36.43
2019-03-22T00:03:12.026Z,38.07
2019-03-22T00:05:40.527Z,36.50
2019-03-22T00:08:08.993Z,35.37
2019-03-22T00:10:37.521Z,37.10
2019-03-22T00:13:06.014Z,34.63
2019-03-22T00:15:34.511Z,34.30
2019-03-22T00:18:02.987Z,34.37
2019-03-22T00:20:31.432Z,32.80
2019-03-22T00:22:59.930Z,33.37
2019-03-22T00:25:28.406Z,30.83
2019-03-22T00:27:56.862Z,29.60
2019-03-22T00:30:25.310Z,29.27
2019-03-22T00:32:54.183Z,28.87
2019-03-22T00:35:22.901Z,30.50
2019-03-22T00:37:51.341Z,27.27
2019-03-22T00:40:19.798Z,27.13
2019-03-22T00:42:48.243Z,26.13
2019-03-22T00:45:16.710Z,26.40
2019-03-22T00:47:45.149Z,25.47
2019-03-22T00:50:14.277Z,22.53
2019-03-22T00:52:42.765Z,23.47
2019-03-22T00:55:11.235Z,25.73
2019-03-22T00:57:39.803Z,24.03
2019-03-22T01:00:13.250Z,25.00
2019-03-22T01:02:41.742Z,24.50
2019-03-22T01:05:10.555Z,20.53
2019-03-22T01:07:40.526Z,22.17
2019-03-22T01:10:11.453Z,20.67
2019-03-22T01:12:40.155Z,21.57
2019-03-22T01:15:10.940Z,19.73
2019-03-22T01:17:39.384Z,19.77
2019-03-22T01:20:09.880Z,18.90
2019-03-22T01:22:38.345Z,18.50
2019-03-22T01:25:08.059Z,21.27
2019-03-22T01:27:40.868Z,20.60
2019-03-22T01:30:13.094Z,20.57
2019-03-22T01:32:41.608Z,20.50
2019-03-22T01:35:10.519Z,20.77
2019-03-22T01:37:38.974Z,20.83
2019-03-22T01:40:09.372Z,20.00
2019-03-22T01:42:37.817Z,20.33
2019-03-22T01:45:09.265Z,21.30
2019-03-22T01:47:37.991Z,19.10
2019-03-22T01:50:08.975Z,20.60
2019-03-22T01:52:37.954Z,22.70
2019-03-22T01:55:06.587Z,21.57
2019-03-22T01:57:35.194Z,23.03
2019-03-22T02:00:05.438Z,22.33
2019-03-22T02:02:33.925Z,22.00
2019-03-22T02:05:02.438Z,20.77
2019-03-22T02:07:30.900Z,21.53
2019-03-22T02:09:59.352Z,19.67
2019-03-22T02:13:08.626Z,19.50
2019-03-22T02:15:37.279Z,18.73
2019-03-22T02:21:47.143Z,18.57
2019-03-22T02:24:15.682Z,16.93
2019-03-22T02:26:44.143Z,17.10
2019-03-22T02:29:12.614Z,17.10
2019-03-22T02:31:41.129Z,18.17
2019-03-22T02:34:09.603Z,19.33
2019-03-22T02:36:38.064Z,17.80
2019-03-22T02:39:06.964Z,16.90
2019-03-22T02:41:35.713Z,17.30
2019-03-22T02:44:04.380Z,18.47
2019-03-22T02:46:32.833Z,17.03
2019-03-22T02:49:01.355Z,16.33
2019-03-22T02:51:30.017Z,16.20
2019-03-22T02:53:58.537Z,17.47
2019-03-22T02:56:27.106Z,17.43
2019-03-22T02:58:59.079Z,16.53
2019-03-22T03:01:25.829Z,16.90
2019-03-22T03:03:54.445Z,16.40
2019-03-22T03:06:22.952Z,18.10
2019-03-22T03:08:51.416Z,18.50
2019-03-22T03:11:19.918Z,17.40
2019-03-22T03:13:48.476Z,19.00
2019-03-22T03:16:16.918Z,20.40
2019-03-22T03:18:45.380Z,20.17
2019-03-22T03:21:13.924Z,18.67
2019-03-22T03:23:42.464Z,18.73
2019-03-22T03:26:10.995Z,17.57
2019-03-22T03:28:39.461Z,18.47
2019-03-22T03:31:08.487Z,19.67
2019-03-22T03:33:37.127Z,18.63
2019-03-22T03:36:05.962Z,19.10
2019-03-22T03:38:34.427Z,19.23
2019-03-22T03:41:03.432Z,18.60
2019-03-22T03:43:31.902Z,19.03
2019-03-22T03:46:00.417Z,17.07
2019-03-22T03:48:28.899Z,18.97
2019-03-22T03:50:57.406Z,19.40
2019-03-22T03:53:25.878Z,18.77
2019-03-22T03:55:54.353Z,16.83
2019-03-22T03:58:22.887Z,18.27
2019-03-22T04:00:51.326Z,17.13
2019-03-22T04:03:19.831Z,18.10
2019-03-22T04:05:48.336Z,17.60
2019-03-22T04:08:16.802Z,17.53
2019-03-22T04:10:45.254Z,16.87
2019-03-22T04:13:13.736Z,18.90
2019-03-22T04:15:42.201Z,16.50
2019-03-22T04:18:10.648Z,17.27
2019-03-22T04:20:39.164Z,17.47
2019-03-22T04:23:07.657Z,16.90
2019-03-22T04:25:36.128Z,17.93
2019-03-22T04:28:04.815Z,17.37
2019-03-22T04:30:33.340Z,16.83
2019-03-22T04:33:01.867Z,17.80
2019-03-22T04:35:30.307Z,17.40
2019-03-22T04:37:58.750Z,17.53
2019-03-22T04:40:30.311Z,17.90
2019-03-22T04:42:59.091Z,18.03
2019-03-22T04:45:30.569Z,17.30
2019-03-22T04:48:02.110Z,15.97
2019-03-22T04:50:33.278Z,17.70
2019-03-22T04:53:03.384Z,19.33
2019-03-22T04:55:33.785Z,17.63
2019-03-22T04:58:03.459Z,16.63
2019-03-22T05:00:33.452Z,16.83
2019-03-22T05:03:03.143Z,17.97
2019-03-22T05:05:31.659Z,16.67
2019-03-22T05:08:00.571Z,16.23
2019-03-22T05:10:29.450Z,15.97
2019-03-22T05:13:00.108Z,15.13
2019-03-22T05:15:31.491Z,15.03
2019-03-22T05:18:01.573Z,14.97
2019-03-22T05:20:32.443Z,14.93
2019-03-22T05:23:01.718Z,14.80
2019-03-22T05:25:30.810Z,15.90
2019-03-22T05:28:01.609Z,15.93
2019-03-22T05:30:51.464Z,15.97
2019-03-22T05:33:19.907Z,16.10
2019-03-22T05:35:48.395Z,15.87
2019-03-22T05:38:16.933Z,15.17
2019-03-22T05:40:45.400Z,17.27
2019-03-22T05:43:13.916Z,15.70
2019-03-22T05:45:42.421Z,17.43
2019-03-22T05:48:10.893Z,16.60
2019-03-22T05:50:39.382Z,17.50
2019-03-22T05:53:07.930Z,17.60
2019-03-22T05:55:36.397Z,17.77
2019-03-22T05:58:04.907Z,16.17
2019-03-22T06:00:33.380Z,16.00
2019-03-22T06:03:01.842Z,16.77
2019-03-22T06:05:30.307Z,17.10
2019-03-22T06:07:58.780Z,16.30
2019-03-22T06:10:27.229Z,16.83
2019-03-22T06:12:55.697Z,16.80
2019-03-22T06:15:24.220Z,16.37
2019-03-22T06:17:52.749Z,17.97
2019-03-22T06:20:21.186Z,15.20
2019-03-22T06:22:49.679Z,15.93
2019-03-22T06:25:18.224Z,16.40
2019-03-22T06:27:46.676Z,17.10
2019-03-22T06:30:15.199Z,17.17
2019-03-22T06:32:43.686Z,16.93
2019-03-22T06:35:12.939Z,16.67
2019-03-22T06:37:41.516Z,15.30
2019-03-22T06:40:10.457Z,15.80
2019-03-22T06:42:39.147Z,17.63
2019-03-22T06:45:07.966Z,18.57
2019-03-22T06:47:36.444Z,19.50
2019-03-22T06:50:06.853Z,18.20
2019-03-22T06:52:35.468Z,16.57
2019-03-22T06:55:06.318Z,16.83
2019-03-22T06:57:34.848Z,17.70
2019-03-22T07:00:07.861Z,18.33
2019-03-22T07:02:36.489Z,17.83
2019-03-22T07:05:06.455Z,11.73
2019-03-22T07:07:34.981Z,16.80
2019-03-22T07:10:05.238Z,19.07
2019-03-22T07:12:33.721Z,17.43
2019-03-22T07:15:02.199Z,14.83
2019-03-22T07:17:31.992Z,13.43
2019-03-22T07:20:00.551Z,13.70
2019-03-22T07:22:28.996Z,11.10
2019-03-22T07:24:57.521Z,10.83
2019-03-22T07:27:26.049Z,11.90
2019-03-22T07:29:54.505Z,11.97
2019-03-22T07:32:22.950Z,11.97
2019-03-22T07:34:51.422Z,11.43
2019-03-22T07:37:19.883Z,11.43
2019-03-22T07:39:48.383Z,11.73
2019-03-22T07:42:17.693Z,12.40
2019-03-22T07:44:46.296Z,10.73
2019-03-22T07:47:14.832Z,11.20
2019-03-22T07:49:43.342Z,11.87
2019-03-22T07:52:11.780Z,12.97
2019-03-22T07:54:40.260Z,11.63
2019-03-22T07:57:08.718Z,12.57
2019-03-22T07:59:37.233Z,12.83
2019-03-22T08:02:05.674Z,12.40
2019-03-22T08:04:34.144Z,11.00
2019-03-22T08:07:02.579Z,10.80
2019-03-22T08:09:31.110Z,10.60
2019-03-22T08:11:59.650Z,10.70
2019-03-22T08:14:28.182Z,10.93
2019-03-22T08:16:56.709Z,11.47
2019-03-22T08:19:25.243Z,12.20
2019-03-22T08:21:53.695Z,11.90
2019-03-22T08:24:22.232Z,11.60
2019-03-22T08:26:50.757Z,12.30
2019-03-22T08:29:19.348Z,10.93
2019-03-22T08:31:47.803Z,11.60
2019-03-22T08:34:17.286Z,11.77
2019-03-22T08:36:45.809Z,12.40
2019-03-22T08:39:14.306Z,11.30
2019-03-22T08:41:42.784Z,11.97
2019-03-22T08:44:11.307Z,12.00
2019-03-22T08:46:39.776Z,10.73
2019-03-22T08:49:09.669Z,11.70
2019-03-22T08:51:38.354Z,11.90
2019-03-22T08:54:06.849Z,12.70
2019-03-22T08:56:36.281Z,12.17
2019-03-22T08:59:05.543Z,12.63
2019-03-22T09:01:34.042Z,12.57
2019-03-22T09:04:02.630Z,12.73
2019-03-22T09:06:31.147Z,13.07
2019-03-22T09:08:59.705Z,13.07
2019-03-22T09:11:28.278Z,12.90
2019-03-22T09:13:56.793Z,13.17
2019-03-22T09:16:25.329Z,13.40
2019-03-22T09:18:53.855Z,14.90
2019-03-22T09:21:22.397Z,15.10
2019-03-22T09:23:50.912Z,13.50
2019-03-22T09:26:20.139Z,16.60
2019-03-22T09:28:48.742Z,14.13
2019-03-22T09:31:17.255Z,15.57
2019-03-22T09:33:45.705Z,17.87
2019-03-22T09:36:14.206Z,17.00
2019-03-22T09:38:42.746Z,17.83
2019-03-22T09:41:11.270Z,17.60
2019-03-22T09:43:39.738Z,18.00
2019-03-22T09:46:08.296Z,18.53
2019-03-22T09:48:36.825Z,18.83
2019-03-22T09:51:05.407Z,20.60
2019-03-22T09:53:33.979Z,20.80
2019-03-22T09:56:02.541Z,21.30
2019-03-22T09:58:30.973Z,23.40
2019-03-22T10:00:59.448Z,26.13
2019-03-22T10:03:27.992Z,27.97
2019-03-22T10:05:56.481Z,28.87
2019-03-22T10:08:25.029Z,30.87
2019-03-22T10:10:53.507Z,33.30
2019-03-22T10:13:22.006Z,37.93
2019-03-22T10:15:50.487Z,37.13
2019-03-22T10:18:18.946Z,39.90
2019-03-22T10:20:47.391Z,42.63
2019-03-22T10:23:15.857Z,43.20
2019-03-22T10:25:44.389Z,41.97
2019-03-22T10:28:12.868Z,42.93
2019-03-22T10:30:41.377Z,47.90
2019-03-22T10:33:22.147Z,45.53
2019-03-22T10:35:40.022Z,47.40
2019-03-22T10:38:16.034Z,45.03
2019-03-22T10:40:38.813Z,43.47
2019-03-22T10:43:07.399Z,45.67
2019-03-22T10:45:35.964Z,44.37
2019-03-22T10:48:04.550Z,43.27
2019-03-22T10:50:33.057Z,40.60
2019-03-22T10:53:01.840Z,37.20
2019-03-22T10:55:30.873Z,36.27
2019-03-22T10:57:59.474Z,36.77
2019-03-22T11:00:28.080Z,36.10
2019-03-22T11:02:56.590Z,35.07
2019-03-22T11:05:25.102Z,36.73
2019-03-22T11:07:53.615Z,35.80
2019-03-22T11:10:22.066Z,34.23
2019-03-22T11:12:50.595Z,33.07
2019-03-22T11:15:19.061Z,32.87
2019-03-22T11:17:47.535Z,32.67
2019-03-22T11:20:17.557Z,32.67
2019-03-22T11:22:46.077Z,32.93
2019-03-22T11:25:14.962Z,34.00
2019-03-22T11:27:43.434Z,33.83
2019-03-22T11:30:18.132Z,31.73
2019-03-22T11:32:46.646Z,31.13
2019-03-22T11:35:15.878Z,31.40
2019-03-22T11:37:44.362Z,31.17
2019-03-22T11:40:15.457Z,30.50
2019-03-22T11:42:43.914Z,30.00
2019-03-22T11:45:18.378Z,29.00
2019-03-22T11:47:47.004Z,30.30
2019-03-22T11:50:15.553Z,29.90
2019-03-22T11:52:45.509Z,29.03
2019-03-22T11:55:14.776Z,28.00
2019-03-22T11:57:43.311Z,29.47
2019-03-22T12:00:17.465Z,29.67
2019-03-22T12:02:45.920Z,29.13
2019-03-22T12:05:15.566Z,30.27
2019-03-22T12:07:44.123Z,29.87
2019-03-22T12:10:18.447Z,28.50
2019-03-22T12:12:47.611Z,27.63
2019-03-22T12:15:21.484Z,29.23
2019-03-22T12:17:50.208Z,31.47
2019-03-22T12:20:23.040Z,28.73
2019-03-22T12:22:52.033Z,30.47
2019-03-22T12:25:24.063Z,30.13
2019-03-22T12:27:52.650Z,31.23
2019-03-22T12:30:21.221Z,30.77
2019-03-22T12:32:49.702Z,29.00
2019-03-22T12:35:18.612Z,29.87
2019-03-22T12:37:47.126Z,29.30
2019-03-22T12:40:18.679Z,27.63
2019-03-22T12:42:47.260Z,28.83
2019-03-22T12:45:21.887Z,28.23
2019-03-22T12:47:50.439Z,28.40
2019-03-22T12:50:19.450Z,28.17
2019-03-22T12:52:47.941Z,29.73
2019-03-22T12:55:16.833Z,29.13
2019-03-22T12:57:45.393Z,26.43
2019-03-22T13:00:17.246Z,26.97
2019-03-22T13:02:45.934Z,27.87
2019-03-22T13:05:14.832Z,26.43
2019-03-22T13:07:43.296Z,27.30
2019-03-22T13:10:29.027Z,29.97
2019-03-22T13:12:57.580Z,28.10
2019-03-22T13:15:26.878Z,27.83
2019-03-22T13:17:55.349Z,28.93
2019-03-22T13:20:23.837Z,26.40
2019-03-22T13:22:52.352Z,27.73
2019-03-22T13:25:21.324Z,27.50
2019-03-22T13:27:50.046Z,27.67
2019-03-22T13:30:30.674Z,28.33
2019-03-22T13:32:59.394Z,28.23
2019-03-22T13:35:27.930Z,28.73
2019-03-22T13:37:56.396Z,27.73
2019-03-22T13:40:24.942Z,30.30
2019-03-22T13:42:53.609Z,28.13
2019-03-22T13:45:22.097Z,29.13
2019-03-22T13:47:50.653Z,25.97
2019-03-22T13:50:19.270Z,27.40
2019-03-22T13:52:47.792Z,28.97
2019-03-22T13:55:16.323Z,26.33
2019-03-22T13:57:44.798Z,29.23
2019-03-22T14:00:15.340Z,26.97
2019-03-22T14:02:43.875Z,29.47
2019-03-22T14:05:12.636Z,31.03
2019-03-22T14:07:48.890Z,29.83
2019-03-22T14:10:33.378Z,29.63
2019-03-22T14:13:05.892Z,28.73
2019-03-22T14:15:35.931Z,28.40
2019-03-22T14:18:04.915Z,30.17
2019-03-22T14:20:36.080Z,29.30
2019-03-22T14:23:04.960Z,29.13
2019-03-22T14:25:33.538Z,29.97
2019-03-22T14:28:02.001Z,30.13
2019-03-22T14:30:30.494Z,30.03
2019-03-22T14:33:12.926Z,30.50
2019-03-22T14:35:34.440Z,30.97
2019-03-22T14:38:02.987Z,28.30
2019-03-22T14:40:41.788Z,29.30
2019-03-22T14:43:11.763Z,29.93
2019-03-22T14:45:40.521Z,30.57
2019-03-22T14:48:11.784Z,29.20
2019-03-22T14:50:40.317Z,29.93
2019-03-22T14:53:08.891Z,30.00
2019-03-22T14:55:37.413Z,29.07
2019-03-22T14:58:05.953Z,32.13
2019-03-22T15:00:34.451Z,31.43
2019-03-22T15:03:04.740Z,31.77
2019-03-22T15:05:33.243Z,29.13
2019-03-22T15:08:01.706Z,30.60
2019-03-22T15:10:30.238Z,30.80
2019-03-22T15:12:58.782Z,30.63
2019-03-22T15:15:28.900Z,30.43
2019-03-22T15:18:01.849Z,30.83
2019-03-22T15:20:43.925Z,29.77
2019-03-22T15:23:30.367Z,32.50
2019-03-22T15:26:15.756Z,31.83
2019-03-22T15:28:48.815Z,31.77
2019-03-22T15:31:31.223Z,33.90
2019-03-22T15:34:17.954Z,34.93
2019-03-22T15:36:50.848Z,32.80
2019-03-22T15:39:21.346Z,33.00
2019-03-22T15:41:50.007Z,32.50
2019-03-22T15:44:18.678Z,31.30
2019-03-22T15:46:47.302Z,32.70
2019-03-22T15:49:15.903Z,32.37
2019-03-22T15:51:44.564Z,32.30
2019-03-22T15:54:13.042Z,31.77
2019-03-22T15:56:41.494Z,33.23
2019-03-22T15:59:10.114Z,33.23
2019-03-22T16:01:38.613Z,34.13
2019-03-22T16:04:07.194Z,33.33
2019-03-22T16:06:35.810Z,32.70
2019-03-22T16:09:07.328Z,32.17
2019-03-22T16:11:35.792Z,30.63
2019-03-22T16:14:04.850Z,33.40
2019-03-22T16:16:34.895Z,32.13
2019-03-22T16:19:03.376Z,31.57
2019-03-22T16:21:31.922Z,31.77
2019-03-22T16:24:00.448Z,33.97
2019-03-22T16:26:28.958Z,31.57
2019-03-22T16:28:57.471Z,34.67
2019-03-22T16:31:26.090Z,32.73
2019-03-22T16:33:56.400Z,31.70
2019-03-22T16:36:25.120Z,32.40
2019-03-22T16:38:53.754Z,32.23
2019-03-22T16:41:23.771Z,33.23
2019-03-22T16:43:52.571Z,32.83
2019-03-22T16:46:21.096Z,33.97
2019-03-22T16:48:49.626Z,33.63
2019-03-22T16:51:18.174Z,33.50
2019-03-22T16:53:46.598Z,33.93
2019-03-22T16:56:15.073Z,31.83
2019-03-22T16:58:43.627Z,34.97
2019-03-22T17:01:12.306Z,34.53
2019-03-22T17:03:40.878Z,35.53
2019-03-22T17:06:09.326Z,34.43
2019-03-22T17:08:37.909Z,35.43
2019-03-22T17:11:06.428Z,35.37
2019-03-22T17:13:34.953Z,33.77
2019-03-22T17:16:03.646Z,34.33
2019-03-22T17:18:32.239Z,34.83
2019-03-22T17:21:00.782Z,36.77
2019-03-22T17:23:29.437Z,35.43
2019-03-22T17:25:59.813Z,33.33
2019-03-22T17:28:28.420Z,35.73
2019-03-22T17:30:56.958Z,35.67
2019-03-22T17:33:25.424Z,35.53
2019-03-22T17:35:53.997Z,34.37
2019-03-22T17:38:22.464Z,34.87
2019-03-22T17:40:51.069Z,35.93
2019-03-22T17:43:19.555Z,36.30
2019-03-22T17:45:48.023Z,35.37
2019-03-22T17:48:16.499Z,34.80
2019-03-22T17:50:44.985Z,33.27
2019-03-22T17:53:13.446Z,35.57
2019-03-22T17:55:41.902Z,36.53
2019-03-22T17:58:10.500Z,37.40
2019-03-22T18:00:39.074Z,39.93
2019-03-22T18:03:07.654Z,41.17
2019-03-22T18:05:36.178Z,40.73
2019-03-22T18:08:06.481Z,40.97
2019-03-22T18:10:35.008Z,42.00
2019-03-22T18:13:03.495Z,44.60
2019-03-22T18:15:32.073Z,42.83
2019-03-22T18:18:00.557Z,45.27
2019-03-22T18:20:29.084Z,43.13
2019-03-22T18:22:57.596Z,44.87
2019-03-22T18:25:26.081Z,43.10
2019-03-22T18:27:54.595Z,43.17
2019-03-22T18:30:23.085Z,43.53
2019-03-22T18:32:51.615Z,42.23
2019-03-22T18:35:20.100Z,41.50
2019-03-22T18:37:48.646Z,41.30
2019-03-22T18:40:18.800Z,42.83
2019-03-22T18:42:47.247Z,41.93
2019-03-22T18:45:15.698Z,43.33
2019-03-22T18:47:44.175Z,41.67
2019-03-22T18:50:15.789Z,39.83
2019-03-22T18:52:44.240Z,38.70
2019-03-22T18:55:12.825Z,38.90
2019-03-22T18:57:41.318Z,39.33
2019-03-22T19:00:17.793Z,39.90
2019-03-22T19:02:46.252Z,39.50
2019-03-22T19:05:15.401Z,40.07
2019-03-22T19:07:43.992Z,38.97
2019-03-22T19:10:16.101Z,39.80
2019-03-22T19:12:44.645Z,39.80
2019-03-22T19:15:14.395Z,41.07
2019-03-22T19:17:42.876Z,40.90
2019-03-22T19:20:15.789Z,40.07
2019-03-22T19:22:44.414Z,40.17
2019-03-22T19:25:14.504Z,39.87
2019-03-22T19:27:43.603Z,42.93
2019-03-22T19:30:16.370Z,41.70
2019-03-22T19:32:45.079Z,44.47
2019-03-22T19:35:15.162Z,44.33
2019-03-22T19:37:43.836Z,44.33
2019-03-22T19:40:14.335Z,47.37
2019-03-22T19:42:42.923Z,50.50
2019-03-22T19:45:13.563Z,49.47
2019-03-22T19:47:42.178Z,50.47
2019-03-22T19:50:13.461Z,52.67
2019-03-22T19:52:43.664Z,53.00
2019-03-22T19:55:12.374Z,53.00
2019-03-22T19:57:40.944Z,52.20
2019-03-22T20:00:15.212Z,52.97
2019-03-22T20:02:43.749Z,49.67
2019-03-22T20:05:13.843Z,55.60
2019-03-22T20:07:47.028Z,54.27
2019-03-22T20:10:15.502Z,53.17
2019-03-22T20:12:43.986Z,53.50
2019-03-22T20:15:12.633Z,53.50
2019-03-22T20:17:41.202Z,52.00
2019-03-22T20:20:10.013Z,55.33
2019-03-22T20:22:38.522Z,55.27
2019-03-22T20:25:08.321Z,54.67
2019-03-22T20:27:36.786Z,57.03
2019-03-22T20:30:07.789Z,56.03
2019-03-22T20:32:36.291Z,54.13
2019-03-22T20:35:15.824Z,56.20
2019-03-22T20:37:37.672Z,55.30
2019-03-22T20:40:08.779Z,56.60
2019-03-22T20:42:37.332Z,54.13
2019-03-22T20:45:07.117Z,56.70
2019-03-22T20:47:35.621Z,56.53
2019-03-22T20:50:06.621Z,55.00
2019-03-22T20:52:35.207Z,54.50
2019-03-22T20:55:07.215Z,55.10
2019-03-22T20:57:35.995Z,52.37
2019-03-22T21:00:11.415Z,53.90
2019-03-22T21:02:39.860Z,53.93
2019-03-22T21:05:08.482Z,51.30
2019-03-22T21:07:37.015Z,56.13
2019-03-22T21:10:07.188Z,53.23
2019-03-22T21:12:35.628Z,53.43
2019-03-22T21:15:06.241Z,54.03
2019-03-22T21:17:34.795Z,51.63
2019-03-22T21:20:04.902Z,53.47
2019-03-22T21:22:33.354Z,51.90
2019-03-22T21:25:01.819Z,55.17
2019-03-22T21:27:30.320Z,54.03
2019-03-22T21:29:58.780Z,51.33
2019-03-22T21:32:27.236Z,55.17
2019-03-22T21:34:55.705Z,52.70
2019-03-22T21:37:24.222Z,53.60
2019-03-22T21:39:52.698Z,50.67
2019-03-22T21:42:21.162Z,52.80
2019-03-22T21:44:49.690Z,53.37
2019-03-22T21:47:18.175Z,50.70
2019-03-22T21:49:46.706Z,49.77
2019-03-22T21:52:15.163Z,51.63
2019-03-22T21:54:43.625Z,52.63
2019-03-22T21:57:12.114Z,51.87
2019-03-22T21:59:40.630Z,49.23
2019-03-22T22:02:09.173Z,50.90
2019-03-22T22:04:37.728Z,50.50
2019-03-22T22:07:06.241Z,50.57
2019-03-22T22:09:34.696Z,53.57
2019-03-22T22:12:03.207Z,52.20
2019-03-22T22:14:40.418Z,53.40
2019-03-22T22:17:01.982Z,51.83
2019-03-22T22:19:30.489Z,50.63
2019-03-22T22:21:59.014Z,51.57
2019-03-22T22:24:27.595Z,53.20
2019-03-22T22:26:56.108Z,52.03
2019-03-22T22:29:24.701Z,52.90
2019-03-22T22:31:53.198Z,52.60
2019-03-22T22:34:21.689Z,51.60
2019-03-22T22:36:50.191Z,51.07
2019-03-22T22:39:18.692Z,52.93
2019-03-22T22:41:47.142Z,52.77
2019-03-22T22:44:15.600Z,52.00
2019-03-22T22:46:44.065Z,53.50
2019-03-22T22:49:12.645Z,52.23
2019-03-22T22:51:41.150Z,53.90
2019-03-22T22:54:09.626Z,52.00
2019-03-22T22:56:38.142Z,53.67
2019-03-22T22:59:06.641Z,52.00
2019-03-22T23:01:35.194Z,51.63
2019-03-22T23:04:03.667Z,52.67
2019-03-22T23:06:32.215Z,56.33
2019-03-22T23:09:00.647Z,53.87
2019-03-22T23:11:29.129Z,51.20
2019-03-22T23:13:57.648Z,53.80
2019-03-22T23:16:26.096Z,53.10
2019-03-22T23:18:54.657Z,52.77
2019-03-22T23:21:23.116Z,52.03
2019-03-22T23:23:51.582Z,52.90
2019-03-22T23:26:20.112Z,51.80
2019-03-22T23:28:48.657Z,54.07
2019-03-22T23:31:17.105Z,54.67
2019-03-22T23:33:45.687Z,52.00
2019-03-22T23:36:20.246Z,53.50
2019-03-22T23:38:44.415Z,54.13
2019-03-22T23:41:12.935Z,53.23
2019-03-22T23:43:41.465Z,51.93
2019-03-22T23:46:09.933Z,51.97
2019-03-22T23:48:38.464Z,55.00
2019-03-22T23:51:06.954Z,50.97
2019-03-22T23:53:35.418Z,53.90
2019-03-22T23:56:03.942Z,52.57
2019-03-22T23:58:32.415Z,53.23
